createdAt,value
2022-09-12T00:00:10.894Z,16.69
2022-09-12T00:02:37.417Z,16.84
2022-09-12T00:05:04.325Z,16.85
2022-09-12T00:07:30.782Z,16.61
2022-09-12T00:09:57.329Z,16.72
2022-09-12T00:12:23.744Z,16.78
2022-09-12T00:14:50.373Z,16.88
2022-09-12T00:17:16.785Z,16.80
2022-09-12T00:19:43.217Z,16.65
2022-09-12T00:22:09.619Z,16.54
2022-09-12T00:24:36.061Z,16.68
2022-09-12T00:27:02.592Z,16.68
2022-09-12T00:29:29.161Z,16.66
2022-09-12T00:31:55.634Z,16.57
2022-09-12T00:34:22.115Z,16.45
2022-09-12T00:36:48.600Z,16.40
2022-09-12T00:39:16.836Z,16.42
2022-09-12T00:41:44.368Z,16.49
2022-09-12T00:44:10.750Z,16.47
2022-09-12T00:46:41.239Z,16.41
2022-09-12T00:49:15.566Z,16.48
2022-09-12T00:51:46.655Z,16.43
2022-09-12T00:54:17.074Z,16.37
2022-09-12T00:56:46.916Z,16.22
2022-09-12T00:59:24.600Z,16.09
2022-09-12T01:01:52.561Z,16.11
2022-09-12T01:04:22.430Z,16.08
2022-09-12T01:06:50.593Z,16.10
2022-09-12T01:09:21.682Z,15.80
2022-09-12T01:11:49.345Z,15.61
2022-09-12T01:14:17.423Z,15.61
2022-09-12T01:16:45.345Z,15.45
2022-09-12T01:19:36.893Z,15.69
2022-09-12T01:22:28.108Z,15.39
2022-09-12T01:25:20.766Z,15.32
2022-09-12T01:28:26.169Z,15.47
2022-09-12T01:31:06.220Z,15.67
2022-09-12T01:33:58.743Z,15.68
2022-09-12T01:36:45.939Z,15.55
2022-09-12T01:39:39.657Z,15.63
2022-09-12T01:42:18.263Z,15.60
2022-09-12T01:44:53.970Z,15.63
2022-09-12T01:47:34.144Z,15.61
2022-09-12T01:50:06.941Z,15.48
2022-09-12T01:52:41.335Z,15.50
2022-09-12T01:55:22.639Z,15.49
2022-09-12T01:58:08.528Z,15.52
2022-09-12T02:00:53.140Z,15.13
2022-09-12T02:03:25.345Z,15.43
2022-09-12T02:06:03.582Z,15.52
2022-09-12T02:08:36.911Z,15.53
2022-09-12T02:11:13.336Z,15.61
2022-09-12T02:13:47.687Z,15.47
2022-09-12T02:16:21.329Z,15.21
2022-09-12T02:18:53.198Z,15.14
2022-09-12T02:21:22.864Z,15.05
2022-09-12T02:23:56.760Z,15.07
2022-09-12T02:26:36.230Z,15.19
2022-09-12T02:29:04.363Z,15.25
2022-09-12T02:31:44.426Z,15.15
2022-09-12T02:34:30.983Z,14.99
2022-09-12T02:37:32.789Z,15.07
2022-09-12T02:40:00.805Z,15.05
2022-09-12T02:42:27.306Z,15.14
2022-09-12T02:44:56.380Z,15.05
2022-09-12T02:48:04.497Z,15.09
2022-09-12T02:50:32.084Z,15.18
2022-09-12T02:53:03.851Z,15.07
2022-09-12T02:55:33.480Z,14.93
2022-09-12T02:58:04.952Z,14.98
2022-09-12T03:00:46.204Z,14.96
2022-09-12T03:03:58.597Z,14.97
2022-09-12T03:06:36.031Z,14.86
2022-09-12T03:09:27.502Z,14.94
2022-09-12T03:12:31.175Z,14.78
2022-09-12T03:15:09.190Z,14.78
2022-09-12T03:17:43.875Z,14.66
2022-09-12T03:20:28.890Z,14.72
2022-09-12T03:23:05.794Z,14.74
2022-09-12T03:25:45.675Z,14.81
2022-09-12T03:28:15.562Z,14.81
2022-09-12T03:30:45.727Z,14.64
2022-09-12T03:33:14.742Z,14.74
2022-09-12T03:35:41.791Z,14.72
2022-09-12T03:38:08.629Z,14.58
2022-09-12T03:40:36.440Z,14.63
2022-09-12T03:43:03.612Z,14.65
2022-09-12T03:45:30.245Z,14.70
2022-09-12T03:47:56.813Z,14.52
2022-09-12T03:50:23.254Z,14.65
2022-09-12T03:52:49.666Z,14.65
2022-09-12T03:55:16.366Z,14.67
2022-09-12T03:57:43.236Z,14.73
2022-09-12T04:00:10.517Z,14.63
2022-09-12T04:02:37.159Z,14.70
2022-09-12T04:05:04.648Z,14.73
2022-09-12T04:07:31.140Z,14.63
2022-09-12T04:09:57.551Z,14.64
2022-09-12T04:12:23.980Z,14.59
2022-09-12T04:14:50.505Z,14.56
2022-09-12T04:17:16.976Z,14.46
2022-09-12T04:19:43.404Z,14.43
2022-09-12T04:22:09.836Z,14.39
2022-09-12T04:24:36.264Z,14.33
2022-09-12T04:27:07.205Z,14.40
2022-09-12T04:29:35.623Z,14.40
2022-09-12T04:32:03.046Z,14.40
2022-09-12T04:34:31.594Z,14.42
2022-09-12T04:36:58.239Z,14.42
2022-09-12T04:39:24.751Z,14.38
2022-09-12T04:41:51.907Z,14.33
2022-09-12T04:44:18.353Z,14.33
2022-09-12T04:46:47.032Z,14.24
2022-09-12T04:49:16.258Z,14.17
2022-09-12T04:51:43.211Z,14.23
2022-09-12T04:54:15.776Z,14.29
2022-09-12T04:56:44.706Z,14.10
2022-09-12T04:59:12.862Z,14.22
2022-09-12T05:01:39.831Z,14.33
2022-09-12T05:04:06.335Z,14.23
2022-09-12T05:06:35.856Z,14.08
2022-09-12T05:09:04.374Z,14.10
2022-09-12T05:12:02.085Z,13.85
2022-09-12T05:14:19.758Z,13.87
2022-09-12T05:16:49.406Z,13.90
2022-09-12T05:19:16.556Z,13.69
2022-09-12T05:21:42.972Z,13.66
2022-09-12T05:24:11.319Z,13.74
2022-09-12T05:26:38.082Z,13.86
2022-09-12T05:29:05.509Z,13.76
2022-09-12T05:31:31.949Z,13.77
2022-09-12T05:33:58.406Z,13.69
2022-09-12T05:36:27.920Z,13.57
2022-09-12T05:38:54.657Z,13.75
2022-09-12T05:41:25.106Z,13.65
2022-09-12T05:43:59.686Z,13.44
2022-09-12T05:46:28.951Z,13.82
2022-09-12T05:48:56.855Z,14.03
2022-09-12T05:51:32.810Z,14.28
2022-09-12T05:54:03.410Z,14.49
2022-09-12T05:56:33.253Z,14.66
2022-09-12T05:59:04.091Z,14.62
2022-09-12T06:01:32.312Z,14.15
2022-09-12T06:04:01.267Z,14.23
2022-09-12T06:06:29.917Z,14.07
2022-09-12T06:08:59.421Z,14.07
2022-09-12T06:11:28.779Z,14.01
2022-09-12T06:13:59.986Z,14.34
2022-09-12T06:16:29.377Z,14.30
2022-09-12T06:18:59.085Z,14.13
2022-09-12T06:21:26.683Z,14.19
2022-09-12T06:23:56.363Z,14.52
2022-09-12T06:26:25.469Z,14.50
2022-09-12T06:28:54.000Z,14.29
2022-09-12T06:31:25.764Z,14.17
2022-09-12T06:33:54.316Z,14.14
2022-09-12T06:36:29.632Z,14.23
2022-09-12T06:39:19.985Z,14.41
2022-09-12T06:41:47.564Z,14.73
2022-09-12T06:44:16.701Z,14.92
2022-09-12T06:46:44.275Z,14.92
2022-09-12T06:49:11.295Z,15.04
2022-09-12T06:51:37.827Z,15.23
2022-09-12T06:54:05.431Z,15.22
2022-09-12T06:56:32.289Z,15.17
2022-09-12T06:58:59.556Z,15.34
2022-09-12T07:01:27.017Z,15.48
2022-09-12T07:03:56.423Z,15.64
2022-09-12T07:06:26.145Z,15.86
2022-09-12T07:08:52.873Z,15.82
2022-09-12T07:11:20.791Z,15.87
2022-09-12T07:13:52.735Z,16.09
2022-09-12T07:16:20.320Z,16.10
2022-09-12T07:18:58.900Z,16.29
2022-09-12T07:21:25.879Z,16.48
2022-09-12T07:23:52.738Z,16.40
2022-09-12T07:26:19.271Z,16.53
2022-09-12T07:28:45.767Z,16.66
2022-09-12T07:31:14.874Z,16.66
2022-09-12T07:33:42.429Z,16.88
2022-09-12T07:36:15.093Z,17.03
2022-09-12T07:38:42.331Z,16.94
2022-09-12T07:41:11.786Z,16.99
2022-09-12T07:43:38.259Z,17.04
2022-09-12T07:46:04.918Z,17.38
2022-09-12T07:48:31.344Z,17.36
2022-09-12T07:51:02.260Z,17.16
2022-09-12T07:53:39.620Z,17.36
2022-09-12T07:56:08.430Z,17.69
2022-09-12T07:58:36.562Z,17.83
2022-09-12T08:01:04.481Z,18.11
2022-09-12T08:03:30.985Z,18.14
2022-09-12T08:06:09.350Z,18.27
2022-09-12T08:08:36.850Z,18.45
2022-09-12T08:11:05.974Z,18.74
2022-09-12T08:13:36.590Z,18.93
2022-09-12T08:16:08.703Z,19.20
2022-09-12T08:18:36.385Z,19.21
2022-09-12T08:21:08.485Z,19.43
2022-09-12T08:23:34.923Z,19.58
2022-09-12T08:26:06.070Z,19.68
2022-09-12T08:28:34.769Z,19.51
2022-09-12T08:31:07.580Z,19.73
2022-09-12T08:33:35.316Z,19.85
2022-09-12T08:36:08.040Z,20.00
2022-09-12T08:38:36.263Z,19.84
2022-09-12T08:41:24.962Z,19.91
2022-09-12T08:44:10.032Z,19.98
2022-09-12T08:46:42.677Z,20.06
2022-09-12T08:49:14.943Z,20.03
2022-09-12T08:51:42.271Z,19.60
2022-09-12T08:54:21.014Z,19.82
2022-09-12T08:56:48.603Z,19.99
2022-09-12T08:59:15.557Z,20.16
2022-09-12T09:01:45.273Z,20.36
2022-09-12T09:04:17.581Z,20.32
2022-09-12T09:07:12.908Z,20.44
2022-09-12T09:10:02.917Z,20.44
2022-09-12T09:12:49.115Z,20.62
2022-09-12T09:15:35.953Z,20.42
2022-09-12T09:18:10.764Z,20.71
2022-09-12T09:20:46.679Z,20.78
2022-09-12T09:23:30.893Z,20.87
2022-09-12T09:26:17.795Z,21.00
2022-09-12T09:28:55.876Z,21.21
2022-09-12T09:31:25.943Z,21.37
2022-09-12T09:33:57.537Z,21.27
2022-09-12T09:36:40.381Z,21.23
2022-09-12T09:39:36.094Z,21.56
2022-09-12T09:42:34.941Z,21.58
2022-09-12T09:45:11.895Z,21.89
2022-09-12T09:47:38.247Z,21.93
2022-09-12T09:50:05.107Z,21.74
2022-09-12T09:52:32.843Z,21.80
2022-09-12T09:55:02.730Z,21.89
2022-09-12T09:57:35.373Z,21.98
2022-09-12T10:00:27.123Z,21.78
2022-09-12T10:03:12.751Z,21.72
2022-09-12T10:05:52.441Z,21.53
2022-09-12T10:08:28.525Z,21.94
2022-09-12T10:11:01.870Z,21.77
2022-09-12T10:13:34.412Z,21.86
2022-09-12T10:16:19.344Z,21.98
2022-09-12T10:18:46.335Z,21.87
2022-09-12T10:21:14.690Z,22.07
2022-09-12T10:23:43.176Z,22.22
2022-09-12T10:26:13.928Z,22.24
2022-09-12T10:28:47.992Z,22.58
2022-09-12T10:31:39.033Z,22.65
2022-09-12T10:34:05.698Z,22.70
2022-09-12T10:36:37.094Z,22.79
2022-09-12T10:39:05.365Z,23.06
2022-09-12T10:41:38.132Z,23.12
2022-09-12T10:44:14.517Z,23.19
2022-09-12T10:46:40.982Z,22.74
2022-09-12T10:49:19.461Z,23.27
2022-09-12T10:51:45.908Z,23.28
2022-09-12T10:54:13.145Z,23.51
2022-09-12T10:56:58.515Z,23.53
2022-09-12T10:59:37.100Z,23.61
2022-09-12T11:02:22.367Z,23.75
2022-09-12T11:05:07.919Z,24.06
2022-09-12T11:07:37.622Z,23.99
2022-09-12T11:10:27.616Z,23.97
2022-09-12T11:13:17.157Z,24.14
2022-09-12T11:15:50.437Z,24.44
2022-09-12T11:18:52.118Z,24.78
2022-09-12T11:21:58.014Z,24.66
2022-09-12T11:24:43.998Z,24.79
2022-09-12T11:27:20.361Z,24.58
2022-09-12T11:30:00.369Z,24.62
2022-09-12T11:32:52.365Z,24.52
2022-09-12T11:35:24.922Z,24.59
2022-09-12T11:38:18.676Z,24.70
2022-09-12T11:41:05.390Z,24.58
2022-09-12T11:43:46.880Z,24.56
2022-09-12T11:46:29.995Z,24.81
2022-09-12T11:49:15.422Z,25.19
2022-09-12T11:51:57.865Z,25.25
2022-09-12T11:54:33.542Z,25.34
2022-09-12T11:57:06.348Z,25.23
2022-09-12T11:59:46.772Z,25.06
2022-09-12T12:02:24.859Z,25.20
2022-09-12T12:05:20.652Z,25.06
2022-09-12T12:07:56.075Z,24.87
2022-09-12T12:10:37.620Z,25.29
2022-09-12T12:13:27.775Z,25.47
2022-09-12T12:16:05.371Z,25.56
2022-09-12T12:18:35.610Z,25.82
2022-09-12T12:21:21.090Z,26.11
2022-09-12T12:24:14.100Z,25.79
2022-09-12T12:26:40.743Z,25.90
2022-09-12T12:29:13.207Z,25.87
2022-09-12T12:31:59.054Z,26.13
2022-09-12T12:34:31.983Z,26.42
2022-09-12T12:37:03.138Z,26.67
2022-09-12T12:39:31.948Z,26.89
2022-09-12T12:42:02.194Z,26.99
2022-09-12T12:44:44.011Z,26.87
2022-09-12T12:47:24.160Z,26.75
2022-09-12T12:50:05.278Z,26.67
2022-09-12T12:52:46.914Z,27.16
2022-09-12T12:55:39.803Z,27.13
2022-09-12T12:58:21.004Z,26.97
2022-09-12T13:01:16.810Z,27.14
2022-09-12T13:04:05.552Z,27.27
2022-09-12T13:06:37.818Z,27.15
2022-09-12T13:09:24.256Z,27.02
2022-09-12T13:12:04.381Z,26.69
2022-09-12T13:14:33.721Z,26.99
2022-09-12T13:17:04.649Z,26.60
2022-09-12T13:19:34.198Z,26.68
2022-09-12T13:22:04.107Z,26.45
2022-09-12T13:24:31.040Z,26.20
2022-09-12T13:27:00.304Z,26.38
2022-09-12T13:29:28.156Z,26.65
2022-09-12T13:31:57.943Z,26.99
2022-09-12T13:34:27.741Z,27.01
2022-09-12T13:36:57.462Z,27.17
2022-09-12T13:39:57.338Z,27.12
2022-09-12T13:42:49.424Z,27.32
2022-09-12T13:45:21.967Z,27.14
2022-09-12T13:47:58.735Z,27.19
2022-09-12T13:50:33.189Z,27.45
2022-09-12T13:53:03.829Z,27.61
2022-09-12T13:55:37.026Z,27.69
2022-09-12T13:58:25.684Z,27.51
2022-09-12T14:01:04.499Z,26.81
2022-09-12T14:03:55.747Z,26.75
2022-09-12T14:06:26.256Z,26.66
2022-09-12T14:08:53.051Z,26.72
2022-09-12T14:11:31.208Z,26.93
2022-09-12T14:13:58.218Z,26.94
2022-09-12T14:16:29.002Z,26.81
2022-09-12T14:18:56.051Z,26.44
2022-09-12T14:21:28.520Z,26.53
2022-09-12T14:23:55.199Z,26.30
2022-09-12T14:26:22.526Z,26.47
2022-09-12T14:28:49.437Z,26.56
2022-09-12T14:31:39.492Z,26.66
2022-09-12T14:34:13.865Z,26.71
2022-09-12T14:36:50.829Z,26.46
2022-09-12T14:39:20.411Z,26.37
2022-09-12T14:41:46.946Z,26.52
2022-09-12T14:44:24.844Z,26.59
2022-09-12T14:46:51.897Z,26.70
2022-09-12T14:49:27.062Z,26.81
2022-09-12T14:52:01.429Z,26.74
2022-09-12T14:54:27.836Z,26.61
2022-09-12T14:56:59.967Z,26.84
2022-09-12T14:59:30.248Z,26.77
2022-09-12T15:02:21.867Z,26.79
2022-09-12T15:05:08.638Z,26.81
2022-09-12T15:08:02.512Z,26.83
2022-09-12T15:10:36.483Z,26.62
2022-09-12T15:13:05.816Z,26.52
2022-09-12T15:15:32.485Z,26.41
2022-09-12T15:18:01.375Z,26.48
2022-09-12T15:20:29.920Z,26.44
2022-09-12T15:22:56.827Z,26.20
2022-09-12T15:25:23.300Z,26.24
2022-09-12T15:27:53.539Z,26.40
2022-09-12T15:30:19.907Z,26.37
2022-09-12T15:32:46.378Z,26.07
2022-09-12T15:35:25.532Z,26.04
2022-09-12T15:37:51.921Z,25.90
2022-09-12T15:40:18.840Z,25.71
2022-09-12T15:42:45.359Z,26.04
2022-09-12T15:45:19.814Z,25.85
2022-09-12T15:47:46.652Z,25.94
2022-09-12T15:50:13.280Z,25.99
2022-09-12T15:52:39.802Z,25.73
2022-09-12T15:55:12.269Z,25.88
2022-09-12T15:57:40.382Z,25.81
2022-09-12T16:00:07.497Z,25.77
2022-09-12T16:02:34.009Z,25.89
2022-09-12T16:05:00.451Z,25.82
2022-09-12T16:07:27.153Z,25.78
2022-09-12T16:09:53.521Z,25.65
2022-09-12T16:12:20.077Z,25.66
2022-09-12T16:14:46.485Z,25.66
2022-09-12T16:17:12.883Z,25.66
2022-09-12T16:19:39.297Z,25.50
2022-09-12T16:22:05.740Z,25.54
2022-09-12T16:24:32.479Z,25.45
2022-09-12T16:27:01.120Z,25.51
2022-09-12T16:29:27.882Z,25.41
2022-09-12T16:31:54.255Z,25.46
2022-09-12T16:34:20.712Z,25.43
2022-09-12T16:36:47.128Z,25.24
2022-09-12T16:39:13.612Z,25.16
2022-09-12T16:41:42.588Z,25.11
2022-09-12T16:44:10.114Z,25.06
2022-09-12T16:46:36.671Z,25.03
2022-09-12T16:49:05.913Z,25.00
2022-09-12T16:51:33.658Z,25.02
2022-09-12T16:54:00.412Z,25.12
2022-09-12T16:56:27.442Z,25.17
2022-09-12T16:58:54.717Z,25.15
2022-09-12T17:01:23.433Z,25.13
2022-09-12T17:03:57.994Z,25.12
2022-09-12T17:06:25.468Z,24.96
2022-09-12T17:08:53.670Z,24.98
2022-09-12T17:11:26.468Z,25.02
2022-09-12T17:14:11.345Z,25.06
2022-09-12T17:16:40.994Z,24.87
2022-09-12T17:19:08.493Z,24.84
2022-09-12T17:21:35.685Z,24.75
2022-09-12T17:24:03.313Z,24.69
2022-09-12T17:26:30.015Z,24.63
2022-09-12T17:28:56.768Z,24.64
2022-09-12T17:31:23.301Z,24.68
2022-09-12T17:33:49.953Z,24.62
2022-09-12T17:36:17.748Z,24.55
2022-09-12T17:38:45.906Z,24.52
2022-09-12T17:41:21.249Z,24.45
2022-09-12T17:43:52.369Z,24.32
2022-09-12T17:46:19.862Z,24.35
2022-09-12T17:48:54.706Z,24.28
2022-09-12T17:51:24.475Z,24.21
2022-09-12T17:54:08.594Z,24.08
2022-09-12T17:56:36.955Z,23.96
2022-09-12T17:59:04.811Z,23.79
2022-09-12T18:01:50.215Z,23.77
2022-09-12T18:04:17.070Z,23.71
2022-09-12T18:06:50.842Z,23.68
2022-09-12T18:09:20.153Z,23.52
2022-09-12T18:11:48.085Z,23.43
2022-09-12T18:14:15.196Z,23.39
2022-09-12T18:16:42.606Z,23.35
2022-09-12T18:19:09.620Z,23.31
2022-09-12T18:21:36.104Z,23.13
2022-09-12T18:24:04.039Z,23.09
2022-09-12T18:26:31.209Z,23.07
2022-09-12T18:28:58.033Z,23.03
2022-09-12T18:31:26.861Z,22.98
2022-09-12T18:33:53.384Z,22.90
2022-09-12T18:36:20.885Z,22.74
2022-09-12T18:38:48.016Z,22.67
2022-09-12T18:41:19.744Z,22.55
2022-09-12T18:43:46.874Z,22.55
2022-09-12T18:46:18.073Z,22.54
2022-09-12T18:48:45.246Z,22.34
2022-09-12T18:51:15.803Z,22.24
2022-09-12T18:53:42.978Z,22.10
2022-09-12T18:56:12.351Z,21.94
2022-09-12T18:58:40.567Z,21.95
2022-09-12T19:01:19.331Z,21.77
2022-09-12T19:03:46.600Z,21.69
2022-09-12T19:06:17.405Z,21.64
2022-09-12T19:08:45.326Z,21.55
2022-09-12T19:11:13.120Z,21.68
2022-09-12T19:13:41.949Z,21.61
2022-09-12T19:16:11.803Z,21.52
2022-09-12T19:18:39.663Z,21.38
2022-09-12T19:21:07.959Z,21.33
2022-09-12T19:23:35.289Z,21.21
2022-09-12T19:26:04.190Z,21.21
2022-09-12T19:28:31.021Z,21.03
2022-09-12T19:30:57.935Z,21.12
2022-09-12T19:33:24.591Z,21.19
2022-09-12T19:35:51.707Z,21.25
2022-09-12T19:38:19.036Z,21.13
2022-09-12T19:40:55.271Z,21.01
2022-09-12T19:43:21.653Z,21.12
2022-09-12T19:45:48.308Z,20.94
2022-09-12T19:48:14.681Z,20.64
2022-09-12T19:50:41.088Z,20.78
2022-09-12T19:53:07.462Z,20.79
2022-09-12T19:55:35.762Z,20.71
2022-09-12T19:58:02.924Z,20.64
2022-09-12T20:00:29.619Z,20.61
2022-09-12T20:02:56.038Z,20.63
2022-09-12T20:05:22.540Z,20.62
2022-09-12T20:07:48.933Z,20.64
2022-09-12T20:10:15.643Z,20.50
2022-09-12T20:12:42.209Z,20.44
2022-09-12T20:15:09.761Z,20.44
2022-09-12T20:17:36.363Z,20.42
2022-09-12T20:20:03.225Z,20.36
2022-09-12T20:22:29.661Z,20.34
2022-09-12T20:24:56.181Z,20.40
2022-09-12T20:27:22.715Z,20.33
2022-09-12T20:29:49.326Z,20.30
2022-09-12T20:32:18.212Z,20.38
2022-09-12T20:34:44.610Z,20.30
2022-09-12T20:37:11.209Z,20.18
2022-09-12T20:39:37.712Z,20.20
2022-09-12T20:42:04.250Z,20.16
2022-09-12T20:44:30.688Z,20.16
2022-09-12T20:46:57.434Z,20.17
2022-09-12T20:49:29.999Z,19.99
2022-09-12T20:51:56.476Z,19.99
2022-09-12T20:54:23.301Z,20.00
2022-09-12T20:56:49.713Z,20.02
2022-09-12T20:59:16.075Z,19.96
2022-09-12T21:01:43.858Z,20.00
2022-09-12T21:04:14.387Z,20.02
2022-09-12T21:06:41.594Z,20.05
2022-09-12T21:09:08.012Z,20.03
2022-09-12T21:11:34.488Z,20.10
2022-09-12T21:14:00.906Z,20.02
2022-09-12T21:16:27.707Z,19.87
2022-09-12T21:18:57.307Z,19.94
2022-09-12T21:21:25.499Z,19.96
2022-09-12T21:23:52.002Z,20.07
2022-09-12T21:26:18.546Z,19.98
2022-09-12T21:28:45.003Z,20.01
2022-09-12T21:31:11.544Z,19.86
2022-09-12T21:33:38.053Z,19.85
2022-09-12T21:36:06.115Z,19.86
2022-09-12T21:38:33.068Z,19.96
2022-09-12T21:41:14.430Z,20.01
2022-09-12T21:43:41.757Z,19.95
2022-09-12T21:46:09.546Z,19.88
2022-09-12T21:48:36.671Z,19.70
2022-09-12T21:51:03.711Z,19.80
2022-09-12T21:53:30.931Z,19.77
2022-09-12T21:56:05.216Z,19.77
2022-09-12T21:58:31.718Z,19.64
2022-09-12T22:00:59.175Z,19.61
2022-09-12T22:03:26.185Z,19.67
2022-09-12T22:06:01.430Z,19.61
2022-09-12T22:08:29.231Z,19.59
2022-09-12T22:11:00.784Z,19.62
2022-09-12T22:13:27.284Z,19.61
2022-09-12T22:15:53.757Z,19.61
2022-09-12T22:18:20.272Z,19.49
2022-09-12T22:20:46.665Z,19.45
2022-09-12T22:23:32.177Z,19.46
2022-09-12T22:26:00.555Z,19.32
2022-09-12T22:28:27.044Z,19.22
2022-09-12T22:30:54.943Z,19.22
2022-09-12T22:33:22.085Z,19.11
2022-09-12T22:35:48.550Z,19.12
2022-09-12T22:38:15.011Z,19.12
2022-09-12T22:40:41.466Z,19.10
2022-09-12T22:43:08.769Z,19.09
2022-09-12T22:45:35.335Z,19.08
2022-09-12T22:48:05.051Z,19.10
2022-09-12T22:50:35.426Z,19.11
2022-09-12T22:53:01.844Z,19.09
2022-09-12T22:55:28.229Z,19.04
2022-09-12T22:57:54.645Z,19.04
2022-09-12T23:00:21.045Z,19.01
2022-09-12T23:02:47.442Z,18.99
2022-09-12T23:05:13.962Z,18.88
2022-09-12T23:07:40.401Z,18.93
2022-09-12T23:10:07.425Z,18.82
2022-09-12T23:12:33.875Z,18.90
2022-09-12T23:15:00.237Z,18.82
2022-09-12T23:17:26.648Z,18.72
2022-09-12T23:19:53.082Z,18.70
2022-09-12T23:22:19.495Z,18.67
2022-09-12T23:24:45.925Z,18.67
2022-09-12T23:27:12.473Z,18.68
2022-09-12T23:29:38.871Z,18.69
2022-09-12T23:32:05.547Z,18.68
2022-09-12T23:34:33.484Z,18.69
2022-09-12T23:37:00.129Z,18.73
2022-09-12T23:39:26.564Z,18.63
2022-09-12T23:41:53.005Z,18.66
2022-09-12T23:44:19.548Z,18.69
2022-09-12T23:46:45.926Z,18.75
2022-09-12T23:49:12.383Z,18.55
2022-09-12T23:51:38.842Z,18.64
2022-09-12T23:54:05.344Z,18.62
2022-09-12T23:56:31.753Z,18.56
2022-09-12T23:58:58.145Z,18.62
